TimeEST,TemperatureF,Dew PointF,Humidity,Sea Level PressureIn,VisibilityMPH,Wind Direction,Wind SpeedMPH,Gust SpeedMPH,PrecipitationIn,Events,Conditions,WindDirDegrees,DateUTC
12:15 AM,27.0,11.1,51,30.07,10.0,West,13.8,19.6,N/A,,Overcast,260,2011-12-09 05:15:00
12:34 AM,27.0,11.3,52,30.08,10.0,WSW,13.8,23.0,N/A,,Overcast,250,2011-12-09 05:34:00
12:55 AM,26.6,10.9,52,30.07,10.0,WSW,11.5,18.4,N/A,,Overcast,240,2011-12-09 05:55:00
1:14 AM,26.6,11.1,52,30.07,10.0,WSW,16.1,20.7,N/A,,Overcast,250,2011-12-09 06:14:00
1:35 AM,26.4,9.3,49,30.07,10.0,WSW,11.5,20.7,N/A,,Overcast,250,2011-12-09 06:35:00
1:54 AM,26.4,11.7,54,30.07,10.0,West,16.1,21.9,N/A,,Overcast,260,2011-12-09 06:54:00
2:14 AM,26.4,12.7,56,30.07,10.0,WSW,12.7,21.9,N/A,,Overcast,250,2011-12-09 07:14:00
2:35 AM,26.2,10.9,52,30.07,10.0,WSW,13.8,-,N/A,,Overcast,250,2011-12-09 07:35:00
3:14 AM,25.7,10.4,52,30.07,10.0,WSW,12.7,21.9,N/A,,Overcast,240,2011-12-09 08:14:00
3:35 AM,25.3,11.7,56,30.07,10.0,WSW,18.4,-,N/A,,Overcast,250,2011-12-09 08:35:00
3:54 AM,25.3,12.2,58,30.07,10.0,WSW,13.8,19.6,N/A,,Overcast,250,2011-12-09 08:54:00
4:14 AM,25.2,12.4,58,30.06,10.0,WSW,13.8,20.7,N/A,,Overcast,240,2011-12-09 09:14:00
4:35 AM,24.8,13.6,63,30.07,10.0,WSW,15.0,20.7,N/A,Snow,Light Snow,250,2011-12-09 09:35:00
4:54 AM,24.8,13.8,63,30.07,10.0,West,19.6,-,N/A,,Overcast,270,2011-12-09 09:54:00
5:14 AM,24.8,13.5,62,30.07,10.0,WSW,11.5,20.7,N/A,,Overcast,240,2011-12-09 10:14:00
5:35 AM,24.8,11.5,57,30.08,10.0,West,20.7,24.2,N/A,,Overcast,260,2011-12-09 10:35:00
5:54 AM,24.3,11.1,57,30.08,10.0,WSW,13.8,25.3,N/A,,Overcast,250,2011-12-09 10:54:00
6:14 AM,24.3,12.0,60,30.08,10.0,WSW,15.0,26.5,N/A,,Overcast,250,2011-12-09 11:14:00
6:35 AM,23.9,11.8,60,30.08,10.0,WSW,18.4,25.3,N/A,Snow,Light Snow,250,2011-12-09 11:35:00
6:54 AM,23.9,10.4,56,30.09,10.0,WSW,19.6,25.3,N/A,,Overcast,240,2011-12-09 11:54:00
7:15 AM,23.9,11.7,60,30.09,10.0,WSW,18.4,24.2,N/A,,Overcast,250,2011-12-09 12:15:00
7:34 AM,23.4,12.9,64,30.10,10.0,WSW,23.0,27.6,N/A,Snow,Light Snow,250,2011-12-09 12:34:00
7:54 AM,23.0,12.0,63,30.10,10.0,West,17.3,28.8,N/A,Snow,Light Snow,260,2011-12-09 12:54:00
8:15 AM,22.6,10.9,61,30.11,10.0,West,20.7,26.5,N/A,,Overcast,260,2011-12-09 13:15:00
8:34 AM,22.1,11.5,64,30.12,5.0,WSW,21.9,28.8,N/A,Snow,Light Snow,250,2011-12-09 13:34:00
8:54 AM,22.1,11.3,63,30.12,10.0,West,17.3,26.5,N/A,Snow,Light Snow,260,2011-12-09 13:54:00
9:15 AM,22.1,9.5,58,30.12,10.0,West,19.6,25.3,N/A,,Overcast,260,2011-12-09 14:15:00
9:34 AM,21.9,11.1,63,30.13,7.0,West,17.3,26.5,N/A,,Overcast,260,2011-12-09 14:34:00
9:54 AM,21.7,10.9,63,30.13,7.0,West,17.3,23.0,N/A,Snow,Light Snow,260,2011-12-09 14:54:00
10:15 AM,22.1,10.4,61,30.14,10.0,WSW,13.8,26.5,N/A,,Overcast,250,2011-12-09 15:15:00
10:34 AM,22.1,9.0,57,30.14,10.0,West,19.6,25.3,N/A,,Overcast,260,2011-12-09 15:34:00
10:55 AM,22.5,9.9,59,30.14,10.0,West,19.6,26.5,N/A,,Overcast,260,2011-12-09 15:55:00
11:15 AM,22.3,10.4,60,30.15,10.0,WSW,16.1,27.6,N/A,,Overcast,250,2011-12-09 16:15:00
11:34 AM,22.3,12.0,65,30.14,7.0,WSW,18.4,27.6,N/A,Snow,Light Snow,250,2011-12-09 16:34:00
11:55 AM,22.5,10.2,59,30.14,10.0,WSW,18.4,24.2,N/A,,Overcast,240,2011-12-09 16:55:00
12:14 PM,22.6,9.7,58,30.14,10.0,West,18.4,25.3,N/A,,Overcast,260,2011-12-09 17:14:00
12:34 PM,22.1,10.4,61,30.14,10.0,WSW,15.0,25.3,N/A,,Overcast,240,2011-12-09 17:34:00
12:55 PM,22.5,9.5,58,30.14,10.0,West,15.0,25.3,N/A,,Overcast,260,2011-12-09 17:55:00
1:14 PM,22.5,11.3,62,30.14,10.0,WSW,18.4,26.5,N/A,,Overcast,250,2011-12-09 18:14:00
1:34 PM,22.3,10.8,61,30.14,10.0,West,19.6,26.5,N/A,,Overcast,270,2011-12-09 18:34:00
2:14 PM,22.3,11.1,62,30.14,10.0,WSW,15.0,-,N/A,,Overcast,250,2011-12-09 19:14:00
2:35 PM,22.6,10.0,59,30.14,10.0,WSW,16.1,25.3,N/A,,Overcast,250,2011-12-09 19:35:00
2:54 PM,22.6,11.1,61,30.14,10.0,WSW,17.3,23.0,N/A,,Overcast,250,2011-12-09 19:54:00
3:14 PM,22.6,10.2,59,30.15,10.0,WSW,16.1,24.2,N/A,,Overcast,250,2011-12-09 20:14:00
3:34 PM,22.6,11.3,62,30.15,10.0,West,16.1,21.9,N/A,,Overcast,260,2011-12-09 20:34:00
4:15 PM,22.6,9.5,57,30.15,10.0,WSW,17.3,24.2,N/A,,Overcast,250,2011-12-09 21:15:00
4:35 PM,22.6,10.4,59,30.16,10.0,West,13.8,24.2,N/A,,Overcast,260,2011-12-09 21:35:00
5:15 PM,22.6,9.7,58,30.17,10.0,West,19.6,25.3,N/A,,Mostly Cloudy,260,2011-12-09 22:15:00
5:34 PM,22.8,11.1,61,30.17,10.0,WSW,18.4,21.9,N/A,,Overcast,250,2011-12-09 22:34:00
5:54 PM,22.8,10.0,58,30.18,10.0,WSW,16.1,21.9,N/A,,Overcast,250,2011-12-09 22:54:00
6:15 PM,22.6,8.2,54,30.19,10.0,West,19.6,26.5,N/A,,Mostly Cloudy,270,2011-12-09 23:15:00
6:34 PM,23.0,10.0,58,30.19,10.0,West,21.9,25.3,N/A,,Mostly Cloudy,260,2011-12-09 23:34:00
6:54 PM,23.0,9.0,55,30.20,10.0,West,19.6,24.2,N/A,,Overcast,270,2011-12-09 23:54:00
7:15 PM,23.0,9.3,56,30.20,10.0,West,19.6,27.6,N/A,,Overcast,260,2011-12-10 00:15:00
7:34 PM,23.2,10.8,59,30.21,10.0,West,18.4,25.3,N/A,,Overcast,270,2011-12-10 00:34:00
7:54 PM,23.0,7.5,52,30.21,10.0,West,17.3,26.5,N/A,,Overcast,280,2011-12-10 00:54:00
8:15 PM,23.0,9.3,56,30.22,10.0,West,17.3,24.2,N/A,,Overcast,270,2011-12-10 01:15:00
8:34 PM,22.8,11.1,61,30.23,10.0,West,17.3,25.3,N/A,,Overcast,280,2011-12-10 01:34:00
8:54 PM,22.6,10.8,60,30.23,10.0,WNW,18.4,28.8,N/A,,Overcast,290,2011-12-10 01:54:00
9:14 PM,22.3,10.4,60,30.24,10.0,West,16.1,24.2,N/A,,Overcast,270,2011-12-10 02:14:00
9:34 PM,22.1,10.4,61,30.24,10.0,West,17.3,23.0,N/A,,Overcast,280,2011-12-10 02:34:00
9:54 PM,21.7,9.5,59,30.25,10.0,West,15.0,23.0,N/A,,Overcast,280,2011-12-10 02:54:00
10:14 PM,21.7,9.3,59,30.25,10.0,WNW,16.1,25.3,N/A,,Overcast,290,2011-12-10 03:14:00
10:35 PM,21.7,8.2,56,30.25,10.0,West,15.0,-,N/A,,Overcast,280,2011-12-10 03:35:00
10:54 PM,21.6,8.6,57,30.25,10.0,West,18.4,-,N/A,,Overcast,270,2011-12-10 03:54:00
11:14 PM,21.6,9.1,59,30.25,10.0,West,16.1,23.0,N/A,,Overcast,270,2011-12-10 04:14:00
11:35 PM,21.2,8.4,58,30.25,10.0,West,18.4,23.0,N/A,,Overcast,270,2011-12-10 04:35:00